createdAt,value
2023-03-12T00:02:13.629Z,-9.50
2023-03-12T00:04:42.037Z,-9.50
2023-03-12T00:07:10.254Z,-9.50
2023-03-12T00:09:38.840Z,-9.60
2023-03-12T00:12:07.859Z,-9.80
2023-03-12T00:14:38.044Z,-9.80
2023-03-12T00:17:06.291Z,-9.70
2023-03-12T00:19:34.541Z,-9.90
2023-03-12T00:22:02.867Z,-10.10
2023-03-12T00:24:31.146Z,-10.10
2023-03-12T00:26:59.323Z,-10.00
2023-03-12T00:29:27.604Z,-9.90
2023-03-12T00:31:57.279Z,-9.80
2023-03-12T00:34:25.731Z,-10.00
2023-03-12T00:36:53.867Z,-10.00
2023-03-12T00:39:22.158Z,-10.00
2023-03-12T00:41:50.466Z,-9.90
2023-03-12T00:44:18.715Z,-9.80
2023-03-12T00:46:47.050Z,-9.90
2023-03-12T00:49:16.795Z,-9.90
2023-03-12T00:51:45.055Z,-9.90
2023-03-12T00:54:13.331Z,-10.00
2023-03-12T00:56:41.476Z,-10.10
2023-03-12T00:59:09.784Z,-10.00
2023-03-12T01:01:38.163Z,-10.10
2023-03-12T01:04:06.505Z,-9.80
2023-03-12T01:06:36.220Z,-10.10
2023-03-12T01:09:05.351Z,-10.10
2023-03-12T01:11:33.973Z,-10.00
2023-03-12T01:14:02.709Z,-10.00
2023-03-12T01:16:31.255Z,-10.20
2023-03-12T01:19:00.503Z,-10.30
2023-03-12T01:21:29.064Z,-10.30
2023-03-12T01:23:59.310Z,-10.20
2023-03-12T01:26:27.661Z,-10.10
2023-03-12T01:28:56.007Z,-10.20
2023-03-12T01:31:24.397Z,-10.30
2023-03-12T01:33:53.512Z,-10.30
2023-03-12T01:36:22.768Z,-10.30
2023-03-12T01:38:52.034Z,-10.30
2023-03-12T01:41:22.255Z,-10.20
2023-03-12T01:43:51.087Z,-10.30
2023-03-12T01:46:25.034Z,-10.30
2023-03-12T01:48:56.116Z,-10.30
2023-03-12T01:51:26.547Z,-10.30
2023-03-12T01:53:57.424Z,-10.40
2023-03-12T01:56:28.227Z,-10.50
2023-03-12T01:58:59.928Z,-11.70
2023-03-12T02:01:28.801Z,-10.40
2023-03-12T02:03:57.571Z,-10.50
2023-03-12T02:06:28.219Z,-10.50
2023-03-12T02:08:56.810Z,-10.70
2023-03-12T02:11:26.742Z,-10.80
2023-03-12T02:13:55.128Z,-10.60
2023-03-12T02:16:24.133Z,-10.60
2023-03-12T02:18:53.854Z,-10.70
2023-03-12T02:21:23.682Z,-10.60
2023-03-12T02:23:56.296Z,-10.50
2023-03-12T02:26:26.789Z,-10.60
2023-03-12T02:28:55.924Z,-10.70
2023-03-12T02:31:25.572Z,-10.60
2023-03-12T02:33:56.089Z,-10.60
2023-03-12T02:36:24.272Z,-10.60
2023-03-12T02:38:53.467Z,-10.60
2023-03-12T02:41:23.570Z,-10.80
2023-03-12T02:43:56.154Z,-10.70
2023-03-12T02:46:24.464Z,-10.60
2023-03-12T02:48:53.951Z,-10.70
2023-03-12T02:51:22.175Z,-10.70
2023-03-12T02:53:54.961Z,-10.70
2023-03-12T02:56:23.804Z,-10.70
2023-03-12T02:58:53.865Z,-10.60
2023-03-12T03:01:22.423Z,-10.60
2023-03-12T03:03:50.913Z,-10.80
2023-03-12T03:06:19.526Z,-10.80
2023-03-12T03:08:48.219Z,-10.70
2023-03-12T03:11:16.390Z,-10.50
2023-03-12T03:13:44.631Z,-10.20
2023-03-12T03:16:14.324Z,-10.40
2023-03-12T03:18:42.868Z,-10.50
2023-03-12T03:21:16.406Z,-10.30
2023-03-12T03:23:45.233Z,-10.30
2023-03-12T03:26:16.990Z,-10.20
2023-03-12T03:28:45.431Z,-10.30
2023-03-12T03:31:15.213Z,-10.30
2023-03-12T03:33:43.599Z,-10.30
2023-03-12T03:36:45.679Z,-10.40
2023-03-12T03:39:14.017Z,-10.40
2023-03-12T03:41:42.166Z,-10.40
2023-03-12T03:44:10.507Z,-10.40
2023-03-12T03:46:39.033Z,-10.40
2023-03-12T03:49:07.460Z,-10.40
2023-03-12T03:51:36.012Z,-10.40
2023-03-12T03:54:05.785Z,-10.40
2023-03-12T03:56:33.902Z,-10.40
2023-03-12T03:59:03.212Z,-10.40
2023-03-12T04:01:31.542Z,-10.40
2023-03-12T04:03:59.778Z,-10.50
2023-03-12T04:06:29.775Z,-10.40
2023-03-12T04:08:58.041Z,-10.20
2023-03-12T04:11:27.989Z,-10.20
2023-03-12T04:13:56.503Z,-10.40
2023-03-12T04:16:24.929Z,-10.40
2023-03-12T04:18:53.266Z,-10.40
2023-03-12T04:21:21.501Z,-10.40
2023-03-12T04:23:49.890Z,-10.30
2023-03-12T04:26:18.181Z,-10.50
2023-03-12T04:28:47.795Z,-10.40
2023-03-12T04:31:16.236Z,-10.20
2023-03-12T04:33:44.693Z,-10.10
2023-03-12T04:36:13.556Z,-10.40
2023-03-12T04:38:41.960Z,-10.60
2023-03-12T04:41:21.484Z,-10.50
2023-03-12T04:43:51.182Z,-10.50
2023-03-12T04:46:19.562Z,-10.40
2023-03-12T04:48:47.787Z,-10.40
2023-03-12T04:51:16.179Z,-10.20
2023-03-12T04:53:44.514Z,-10.10
2023-03-12T04:56:12.764Z,-10.00
2023-03-12T04:58:40.973Z,-9.90
2023-03-12T05:01:13.792Z,-10.10
2023-03-12T05:03:42.132Z,-10.00
2023-03-12T05:06:10.580Z,-10.00
2023-03-12T05:08:38.888Z,-10.10
2023-03-12T05:11:07.377Z,-10.20
2023-03-12T05:13:35.621Z,-10.20
2023-03-12T05:16:04.080Z,-10.30
2023-03-12T05:18:33.984Z,-10.30
2023-03-12T05:21:02.722Z,-10.40
2023-03-12T05:23:31.185Z,-10.20
2023-03-12T05:25:59.438Z,-10.30
2023-03-12T05:28:28.684Z,-10.30
2023-03-12T05:30:57.642Z,-10.30
2023-03-12T05:33:26.016Z,-10.10
2023-03-12T05:35:55.844Z,-9.90
2023-03-12T05:38:24.439Z,-9.70
2023-03-12T05:40:53.654Z,-9.80
2023-03-12T05:43:21.987Z,-9.70
2023-03-12T05:45:50.600Z,-9.40
2023-03-12T05:48:19.156Z,-9.30
2023-03-12T05:50:47.534Z,-9.30
2023-03-12T05:53:17.274Z,-9.10
2023-03-12T05:55:45.614Z,-8.90
2023-03-12T05:58:13.710Z,-9.10
2023-03-12T06:00:42.627Z,-9.20
2023-03-12T06:03:10.784Z,-9.10
2023-03-12T06:05:39.351Z,-9.10
2023-03-12T06:08:07.912Z,-9.10
2023-03-12T06:10:39.065Z,-9.00
2023-03-12T06:13:07.404Z,-9.10
2023-03-12T06:15:35.635Z,-9.20
2023-03-12T06:18:03.819Z,-9.20
2023-03-12T06:20:32.157Z,-9.10
2023-03-12T06:23:00.449Z,-9.10
2023-03-12T06:25:28.671Z,-9.10
2023-03-12T06:27:58.309Z,-9.00
2023-03-12T06:30:27.849Z,-9.00
2023-03-12T06:32:56.053Z,-8.80
2023-03-12T06:35:24.468Z,-8.70
2023-03-12T06:37:52.847Z,-8.70
2023-03-12T06:40:21.174Z,-8.60
2023-03-12T06:42:49.414Z,-8.30
2023-03-12T06:45:19.549Z,-8.30
2023-03-12T06:47:47.888Z,-8.20
2023-03-12T06:50:16.169Z,-8.10
2023-03-12T06:52:44.522Z,-8.10
2023-03-12T06:55:12.767Z,-7.90
2023-03-12T06:57:40.997Z,-7.80
2023-03-12T07:00:10.187Z,-7.50
2023-03-12T07:02:39.890Z,-7.50
2023-03-12T07:05:08.963Z,-7.20
2023-03-12T07:07:37.265Z,-7.20
2023-03-12T07:10:06.672Z,-7.00
2023-03-12T07:12:34.999Z,-6.80
2023-03-12T07:15:03.279Z,-6.60
2023-03-12T07:17:31.457Z,-6.60
2023-03-12T07:20:01.147Z,-6.50
2023-03-12T07:22:29.370Z,-6.50
2023-03-12T07:24:57.583Z,-6.40
2023-03-12T07:27:25.923Z,-6.30
2023-03-12T07:29:54.189Z,-6.20
2023-03-12T07:32:22.378Z,-6.10
2023-03-12T07:34:50.720Z,-6.00
2023-03-12T07:37:20.459Z,-5.70
2023-03-12T07:39:52.333Z,-5.50
2023-03-12T07:42:20.614Z,-5.40
2023-03-12T07:44:49.076Z,-5.30
2023-03-12T07:47:23.959Z,-5.20
2023-03-12T07:49:52.666Z,-5.10
2023-03-12T07:52:23.771Z,-4.90
2023-03-12T07:54:52.873Z,-4.60
2023-03-12T07:57:21.252Z,-4.40
2023-03-12T07:59:50.121Z,-4.30
2023-03-12T08:02:18.844Z,-4.40
2023-03-12T08:04:47.207Z,-4.40
2023-03-12T08:07:15.623Z,-4.50
2023-03-12T08:09:45.692Z,-4.50
2023-03-12T08:12:14.149Z,-4.50
2023-03-12T08:14:42.642Z,-4.50
2023-03-12T08:17:11.735Z,-4.50
2023-03-12T08:19:40.082Z,-4.30
2023-03-12T08:22:08.614Z,-4.00
2023-03-12T08:24:36.896Z,-3.80
2023-03-12T08:27:06.490Z,-3.50
2023-03-12T08:29:34.864Z,-3.50
2023-03-12T08:32:05.237Z,-3.40
2023-03-12T08:34:33.948Z,-3.50
2023-03-12T08:37:03.096Z,-3.30
2023-03-12T08:39:31.652Z,-3.10
2023-03-12T08:41:59.816Z,-3.00
2023-03-12T08:44:29.707Z,-2.80
2023-03-12T08:46:57.819Z,-2.60
2023-03-12T08:49:26.277Z,-2.40
2023-03-12T08:51:54.497Z,-2.20
2023-03-12T08:54:22.911Z,-2.00
2023-03-12T08:56:52.091Z,-1.90
2023-03-12T08:59:22.473Z,-1.90
2023-03-12T09:01:52.063Z,-1.90
2023-03-12T09:04:20.426Z,-1.70
2023-03-12T09:06:48.779Z,-1.60
2023-03-12T09:09:16.902Z,-1.60
2023-03-12T09:11:45.510Z,-1.50
2023-03-12T09:15:01.381Z,-1.60
2023-03-12T09:17:03.427Z,-1.60
2023-03-12T09:19:31.640Z,-1.60
2023-03-12T09:21:59.867Z,-1.60
2023-03-12T09:24:28.063Z,-1.50
2023-03-12T09:26:56.387Z,-1.40
2023-03-12T09:29:24.923Z,-1.10
2023-03-12T09:31:53.127Z,-1.30
2023-03-12T09:34:22.734Z,-1.60
2023-03-12T09:36:52.979Z,-1.70
2023-03-12T09:39:22.924Z,-1.70
2023-03-12T09:41:54.155Z,-1.60
2023-03-12T09:44:26.361Z,-1.50
2023-03-12T09:46:55.612Z,-1.50
2023-03-12T09:49:31.344Z,-1.40
2023-03-12T09:52:00.099Z,-1.40
2023-03-12T09:54:31.123Z,-1.20
2023-03-12T09:57:01.928Z,-1.10
2023-03-12T09:59:30.326Z,-0.90
2023-03-12T10:02:00.470Z,-0.70
2023-03-12T10:04:56.332Z,-0.60
2023-03-12T10:07:27.983Z,-0.40
2023-03-12T10:10:14.104Z,-0.70
2023-03-12T10:12:48.424Z,-0.60
2023-03-12T10:15:26.327Z,-0.40
2023-03-12T10:17:58.748Z,-0.80
2023-03-12T10:20:43.181Z,-0.80
2023-03-12T10:23:14.256Z,-0.60
2023-03-12T10:25:43.790Z,-0.60
2023-03-12T10:28:17.359Z,-0.40
2023-03-12T10:30:49.470Z,-0.40
2023-03-12T10:33:19.162Z,-0.50
2023-03-12T10:35:49.167Z,-0.20
2023-03-12T10:38:28.220Z,-0.20
2023-03-12T10:40:56.356Z,-0.40
2023-03-12T10:43:24.834Z,-0.30
2023-03-12T10:45:58.593Z,-0.30
2023-03-12T10:48:27.326Z,-0.20
2023-03-12T10:51:06.762Z,-0.40
2023-03-12T10:53:35.661Z,-0.40
2023-03-12T10:56:05.586Z,-0.30
2023-03-12T10:58:37.855Z,-0.20
2023-03-12T11:01:07.255Z,-0.50
2023-03-12T11:03:35.649Z,-0.30
2023-03-12T11:06:08.306Z,0.00
2023-03-12T11:08:37.192Z,0.20
2023-03-12T11:11:06.565Z,0.10
2023-03-12T11:13:35.787Z,0.00
2023-03-12T11:16:05.052Z,0.00
2023-03-12T11:18:34.511Z,0.10
2023-03-12T11:21:20.603Z,0.40
2023-03-12T11:24:07.428Z,0.70
2023-03-12T11:26:38.121Z,0.40
2023-03-12T11:29:08.357Z,0.60
2023-03-12T11:31:39.253Z,0.40
2023-03-12T11:34:09.141Z,0.50
2023-03-12T11:36:44.356Z,0.40
2023-03-12T11:39:17.871Z,0.40
2023-03-12T11:41:53.167Z,0.20
2023-03-12T11:44:26.019Z,0.40
2023-03-12T11:47:00.458Z,0.80
2023-03-12T11:49:36.219Z,0.80
2023-03-12T11:52:10.465Z,0.70
2023-03-12T11:55:00.004Z,0.90
2023-03-12T11:57:32.005Z,1.20
2023-03-12T12:00:10.483Z,0.90
2023-03-12T12:02:44.910Z,1.20
2023-03-12T12:05:23.572Z,1.10
2023-03-12T12:08:09.337Z,1.20
2023-03-12T12:10:42.538Z,1.40
2023-03-12T12:13:16.378Z,1.70
2023-03-12T12:15:49.527Z,1.70
2023-03-12T12:18:26.725Z,1.60
2023-03-12T12:20:58.312Z,1.30
2023-03-12T12:23:33.447Z,1.10
2023-03-12T12:26:07.067Z,1.00
2023-03-12T12:28:41.140Z,1.10
2023-03-12T12:31:13.997Z,1.10
2023-03-12T12:33:54.555Z,1.10
2023-03-12T12:36:24.468Z,1.20
2023-03-12T12:38:57.202Z,1.20
2023-03-12T12:41:27.867Z,1.50
2023-03-12T12:43:57.348Z,1.60
2023-03-12T12:46:27.813Z,1.50
2023-03-12T12:48:57.142Z,1.40
2023-03-12T12:51:28.282Z,1.30
2023-03-12T12:53:58.994Z,1.20
2023-03-12T12:56:32.289Z,1.30
2023-03-12T12:59:07.254Z,1.70
2023-03-12T13:01:36.247Z,1.80
2023-03-12T13:04:07.001Z,2.00
2023-03-12T13:06:52.773Z,1.90
2023-03-12T13:09:22.727Z,2.00
2023-03-12T13:11:52.475Z,2.30
2023-03-12T13:14:35.898Z,2.00
2023-03-12T13:17:20.227Z,1.90
2023-03-12T13:19:55.479Z,2.00
2023-03-12T13:22:35.889Z,1.60
2023-03-12T13:25:12.806Z,1.70
2023-03-12T13:27:42.823Z,1.50
2023-03-12T13:30:44.029Z,1.40
2023-03-12T13:33:16.245Z,1.40
2023-03-12T13:35:48.815Z,1.10
2023-03-12T13:38:19.823Z,1.30
2023-03-12T13:41:01.952Z,1.30
2023-03-12T13:43:47.715Z,1.40
2023-03-12T13:46:34.402Z,1.70
2023-03-12T13:49:06.836Z,1.60
2023-03-12T13:51:43.787Z,1.80
2023-03-12T13:54:16.996Z,1.60
2023-03-12T13:56:49.292Z,1.50
2023-03-12T13:59:18.130Z,1.50
2023-03-12T14:01:48.338Z,1.50
2023-03-12T14:04:20.068Z,1.40
2023-03-12T14:06:56.124Z,1.40
2023-03-12T14:09:30.997Z,1.10
2023-03-12T14:12:03.479Z,1.30
2023-03-12T14:14:49.708Z,1.20
2023-03-12T14:17:19.579Z,1.30
2023-03-12T14:19:52.143Z,1.00
2023-03-12T14:22:24.094Z,1.10
2023-03-12T14:24:54.228Z,1.10
2023-03-12T14:27:25.496Z,1.30
2023-03-12T14:29:56.619Z,1.20
2023-03-12T14:32:25.569Z,1.30
2023-03-12T14:34:56.744Z,1.20
2023-03-12T14:37:26.347Z,1.10
2023-03-12T14:39:56.108Z,1.00
2023-03-12T14:42:26.315Z,0.80
2023-03-12T14:45:00.066Z,0.80
2023-03-12T14:47:28.841Z,0.90
2023-03-12T14:50:01.154Z,0.80
2023-03-12T14:52:30.712Z,0.90
2023-03-12T14:54:59.740Z,0.80
2023-03-12T14:57:27.961Z,0.60
2023-03-12T14:59:57.077Z,0.80
2023-03-12T15:02:25.681Z,0.90
2023-03-12T15:04:56.475Z,0.80
2023-03-12T15:07:29.624Z,0.90
2023-03-12T15:09:58.059Z,0.80
2023-03-12T15:12:27.487Z,0.80
2023-03-12T15:14:57.112Z,0.80
2023-03-12T15:17:28.940Z,0.80
2023-03-12T15:19:57.525Z,0.80
2023-03-12T15:22:27.953Z,0.80
2023-03-12T15:24:56.288Z,0.80
2023-03-12T15:27:32.838Z,0.60
2023-03-12T15:30:02.065Z,0.40
2023-03-12T15:32:31.975Z,0.60
2023-03-12T15:35:00.739Z,0.50
2023-03-12T15:37:38.071Z,0.30
2023-03-12T15:40:10.862Z,0.40
2023-03-12T15:42:41.381Z,0.20
2023-03-12T15:45:17.825Z,0.10
2023-03-12T15:47:46.660Z,0.00
2023-03-12T15:50:20.480Z,0.00
2023-03-12T15:53:01.151Z,-0.10
2023-03-12T15:55:30.530Z,-0.10
2023-03-12T15:58:02.236Z,-0.20
2023-03-12T16:00:31.711Z,-0.30
2023-03-12T16:03:03.714Z,-0.40
2023-03-12T16:05:33.308Z,-0.50
2023-03-12T16:08:04.560Z,-0.50
2023-03-12T16:10:35.916Z,-0.60
2023-03-12T16:13:04.961Z,-0.60
2023-03-12T16:15:34.021Z,-0.70
2023-03-12T16:18:04.431Z,-0.80
2023-03-12T16:20:33.551Z,-0.70
2023-03-12T16:23:01.830Z,-1.30
2023-03-12T16:25:31.664Z,-0.90
2023-03-12T16:28:02.040Z,-1.00
2023-03-12T16:30:31.292Z,-1.20
2023-03-12T16:33:00.454Z,-1.10
2023-03-12T16:35:31.352Z,-1.10
2023-03-12T16:38:01.047Z,-1.20
2023-03-12T16:40:33.602Z,-1.40
2023-03-12T16:43:04.627Z,-1.50
2023-03-12T16:45:35.872Z,-1.60
2023-03-12T16:48:05.368Z,-1.60
2023-03-12T16:50:33.501Z,-1.60
2023-03-12T16:53:03.905Z,-1.70
2023-03-12T16:55:38.584Z,-1.70
2023-03-12T16:58:08.455Z,-1.60
2023-03-12T17:00:37.090Z,-1.60
2023-03-12T17:03:07.067Z,-1.60
2023-03-12T17:05:35.205Z,-1.60
2023-03-12T17:08:03.704Z,-1.50
2023-03-12T17:10:31.921Z,-1.60
2023-03-12T17:13:00.188Z,-1.60
2023-03-12T17:15:33.289Z,-1.70
2023-03-12T17:18:04.472Z,-1.60
2023-03-12T17:20:36.167Z,-1.60
2023-03-12T17:23:04.657Z,-1.70
2023-03-12T17:25:34.065Z,-1.60
2023-03-12T17:28:02.243Z,-1.70
2023-03-12T17:30:32.286Z,-1.60
2023-03-12T17:33:06.608Z,-1.60
2023-03-12T17:35:35.126Z,-1.60
2023-03-12T17:38:03.680Z,-1.70
2023-03-12T17:40:31.835Z,-1.70
2023-03-12T17:43:00.125Z,-1.70
2023-03-12T17:45:28.518Z,-1.80
2023-03-12T17:47:59.858Z,-1.80
2023-03-12T17:50:28.370Z,-1.80
2023-03-12T17:52:56.528Z,-1.80
2023-03-12T17:55:24.705Z,-1.80
2023-03-12T17:57:55.747Z,-1.70
2023-03-12T18:00:24.182Z,-1.70
2023-03-12T18:02:52.386Z,-1.70
2023-03-12T18:05:22.167Z,-1.80
2023-03-12T18:07:51.025Z,-1.80
2023-03-12T18:10:19.505Z,-1.80
2023-03-12T18:12:47.639Z,-1.80
2023-03-12T18:15:16.944Z,-1.80
2023-03-12T18:17:45.865Z,-1.90
2023-03-12T18:20:21.310Z,-1.80
2023-03-12T18:22:55.572Z,-1.70
2023-03-12T18:25:23.796Z,-1.70
2023-03-12T18:27:52.217Z,-1.60
2023-03-12T18:30:21.197Z,-1.60
2023-03-12T18:32:49.563Z,-1.80
2023-03-12T18:35:18.011Z,-1.70
2023-03-12T18:37:46.417Z,-1.60
2023-03-12T18:40:16.120Z,-1.70
2023-03-12T18:42:44.608Z,-1.80
2023-03-12T18:45:13.146Z,-1.90
2023-03-12T18:47:42.140Z,-1.90
2023-03-12T18:50:12.396Z,-1.90
2023-03-12T18:52:40.599Z,-2.00
2023-03-12T18:55:09.156Z,-1.90
2023-03-12T18:57:38.812Z,-2.00
2023-03-12T19:00:11.802Z,-2.10
2023-03-12T19:02:40.066Z,-2.10
2023-03-12T19:05:08.920Z,-2.10
2023-03-12T19:07:39.032Z,-2.00
2023-03-12T19:10:08.532Z,-2.10
2023-03-12T19:12:51.606Z,-2.10
2023-03-12T19:15:22.157Z,-2.10
2023-03-12T19:17:50.582Z,-2.10
2023-03-12T19:20:21.673Z,-2.10
2023-03-12T19:22:50.071Z,-2.10
2023-03-12T19:25:18.401Z,-2.10
2023-03-12T19:27:46.638Z,-2.20
2023-03-12T19:30:15.212Z,-2.10
2023-03-12T19:32:45.080Z,-2.20
2023-03-12T19:35:14.239Z,-2.30
2023-03-12T19:37:42.613Z,-2.30
2023-03-12T19:40:13.504Z,-2.40
2023-03-12T19:42:41.707Z,-2.40
2023-03-12T19:45:10.627Z,-2.40
2023-03-12T19:47:38.827Z,-2.40
2023-03-12T19:50:09.320Z,-2.40
2023-03-12T19:52:37.486Z,-2.30
2023-03-12T19:55:06.001Z,-2.40
2023-03-12T19:57:34.611Z,-2.40
2023-03-12T20:00:06.702Z,-2.40
2023-03-12T20:02:35.004Z,-2.50
2023-03-12T20:05:03.210Z,-2.50
2023-03-12T20:07:33.084Z,-2.50
2023-03-12T20:10:01.232Z,-2.60
2023-03-12T20:12:29.468Z,-2.40
2023-03-12T20:14:57.645Z,-2.30
2023-03-12T20:17:25.765Z,-2.40
2023-03-12T20:19:56.033Z,-2.70
2023-03-12T20:22:26.250Z,-2.50
2023-03-12T20:24:55.880Z,-2.60
2023-03-12T20:27:24.177Z,-2.80
2023-03-12T20:29:52.363Z,-2.90
2023-03-12T20:32:20.637Z,-3.00
2023-03-12T20:34:49.019Z,-3.20
2023-03-12T20:37:18.121Z,-3.30
2023-03-12T20:39:46.415Z,-3.50
2023-03-12T20:42:16.249Z,-3.50
2023-03-12T20:44:44.396Z,-3.50
2023-03-12T20:47:12.730Z,-3.60
2023-03-12T20:49:40.891Z,-3.80
2023-03-12T20:52:09.160Z,-3.80
2023-03-12T20:54:37.332Z,-3.90
2023-03-12T20:57:05.558Z,-4.00
2023-03-12T20:59:35.201Z,-4.10
2023-03-12T21:02:03.498Z,-4.10
2023-03-12T21:04:31.706Z,-4.30
2023-03-12T21:07:02.798Z,-4.30
2023-03-12T21:09:31.120Z,-4.50
2023-03-12T21:11:59.267Z,-4.60
2023-03-12T21:14:27.420Z,-4.70
2023-03-12T21:16:58.056Z,-4.60
2023-03-12T21:19:27.089Z,-4.70
2023-03-12T21:21:55.260Z,-4.60
2023-03-12T21:24:23.422Z,-4.60
2023-03-12T21:26:51.770Z,-4.50
2023-03-12T21:29:20.009Z,-4.60
2023-03-12T21:31:50.263Z,-4.60
2023-03-12T21:34:19.948Z,-4.70
2023-03-12T21:36:48.088Z,-4.90
2023-03-12T21:39:17.269Z,-5.10
2023-03-12T21:41:45.405Z,-5.10
2023-03-12T21:44:16.109Z,-5.00
2023-03-12T21:46:44.838Z,-4.90
2023-03-12T21:49:14.226Z,-5.00
2023-03-12T21:51:43.967Z,-5.10
2023-03-12T21:54:12.352Z,-5.20
2023-03-12T21:56:41.863Z,-5.20
2023-03-12T21:59:13.394Z,-5.20
2023-03-12T22:01:41.589Z,-5.30
2023-03-12T22:04:09.872Z,-5.40
2023-03-12T22:06:40.904Z,-5.50
2023-03-12T22:09:10.623Z,-5.50
2023-03-12T22:11:38.820Z,-5.60
2023-03-12T22:14:06.999Z,-5.40
2023-03-12T22:16:35.324Z,-5.50
2023-03-12T22:19:03.440Z,-5.40
2023-03-12T22:21:33.952Z,-5.30
2023-03-12T22:24:02.565Z,-5.40
2023-03-12T22:26:32.402Z,-5.30
2023-03-12T22:29:01.326Z,-5.30
2023-03-12T22:31:30.974Z,-5.20
2023-03-12T22:33:59.316Z,-5.00
2023-03-12T22:36:27.541Z,-5.10
2023-03-12T22:38:55.813Z,-5.10
2023-03-12T22:41:24.799Z,-5.20
2023-03-12T22:43:55.408Z,-5.30
2023-03-12T22:46:25.534Z,-5.20
2023-03-12T22:48:54.618Z,-5.10
2023-03-12T22:51:22.925Z,-5.20
2023-03-12T22:53:51.244Z,-5.20
2023-03-12T22:56:19.536Z,-5.40
2023-03-12T22:58:48.995Z,-5.40
2023-03-12T23:01:19.875Z,-5.50
2023-03-12T23:03:48.542Z,-5.60
2023-03-12T23:06:17.648Z,-5.60
2023-03-12T23:08:47.729Z,-5.60
2023-03-12T23:11:19.031Z,-5.70
2023-03-12T23:13:48.271Z,-5.80
2023-03-12T23:16:17.847Z,-5.80
2023-03-12T23:18:47.717Z,-5.90
2023-03-12T23:21:16.762Z,-5.80
2023-03-12T23:23:46.176Z,-5.90
2023-03-12T23:26:15.357Z,-5.80
2023-03-12T23:28:43.744Z,-5.90
2023-03-12T23:31:12.170Z,-5.90
2023-03-12T23:33:40.676Z,-5.90
2023-03-12T23:36:12.341Z,-5.90
2023-03-12T23:38:41.132Z,-5.80
2023-03-12T23:41:09.933Z,-5.80
2023-03-12T23:43:39.094Z,-5.90
2023-03-12T23:46:09.725Z,-5.90
2023-03-12T23:48:41.291Z,-6.00
2023-03-12T23:51:12.104Z,-6.00
2023-03-12T23:53:41.207Z,-6.10
2023-03-12T23:56:10.708Z,-6.00
2023-03-12T23:58:39.004Z,-6.10
